Ashton, Idaho
Current Conditions -  °F | °C
As of 8:53 AM on Thursday 30 Oct 2014 (Local Time) from KRXE Reporting Station
Broken Clouds Broken Clouds  
Wind Chill:   Ceiling: 10000
Heat Index:   Visibility: 10mi
Dew Point: -1°   Wind: 3mph
Humidity: 79%   Direction: 40°NE
Pressure: 30.31"   Gusts: NA
Location:  44.07°N, 111.45°W
Report Text: KRXE 301453Z AUTO 04003KT 10SM BKN100 03/M01 A3031 RMK AO2 SLP273 T00281006 53004
Loading
Personal Weather Stations






























Interactive Weather Map
Tropical Storm Tracking
New forecast layout! Learn more

10-Day Weather Forecast

Advertisements
Track Severe Weather on mobile